Time,TemperatureF,DewpointF,PressureIn,WindDirection,WindDirectionDegrees,WindSpeedMPH,WindSpeedGustMPH,Humidity,HourlyPrecipIn,Conditions,Clouds,dailyrainin,SoftwareType,DateUTC
2013-03-13 00:00:00,31.1,20.7,30.39,North,349,3.5,3.5,65,0.00,CLR,,0.00,WeatherDisplay:10.37,2013-03-13 05:00:00,
2013-03-13 00:05:00,31.1,20.7,30.39,NE,46,3.5,3.5,65,0.00,CLR,,0.00,WeatherDisplay:10.37,2013-03-13 05:05:00,
2013-03-13 00:10:00,30.9,20.9,30.39,North,353,3.5,3.5,66,0.00,CLR,,0.00,WeatherDisplay:10.37,2013-03-13 05:10:00,
2013-03-13 00:15:00,30.7,20.7,30.39,NNE,30,2.3,0.0,66,0.00,CLR,,0.00,WeatherDisplay:10.37,2013-03-13 05:15:00,
2013-03-13 00:20:00,30.7,20.7,30.39,North,8,2.3,0.0,66,0.00,CLR,,0.00,WeatherDisplay:10.37,2013-03-13 05:20:00,
2013-03-13 00:25:00,30.6,20.5,30.39,North,8,0.0,0.0,66,0.00,CLR,,0.00,WeatherDisplay:10.37,2013-03-13 05:25:00,
2013-03-13 00:30:00,30.2,20.2,30.39,North,8,0.0,0.0,66,0.00,CLR,,0.00,WeatherDisplay:10.37,2013-03-13 05:30:00,
2013-03-13 00:35:00,30.0,20.0,30.39,North,8,0.0,0.0,66,0.00,CLR,,0.00,WeatherDisplay:10.37,2013-03-13 05:35:00,
2013-03-13 00:40:00,29.8,20.2,30.39,North,8,0.0,0.0,67,0.00,CLR,,0.00,WeatherDisplay:10.37,2013-03-13 05:40:00,
2013-03-13 00:45:00,29.7,20.0,30.39,North,8,0.0,0.0,67,0.00,CLR,,0.00,WeatherDisplay:10.37,2013-03-13 05:45:00,
2013-03-13 00:50:00,29.5,19.9,30.39,North,8,0.0,0.0,67,0.00,CLR,,0.00,WeatherDisplay:10.37,2013-03-13 05:50:00,
2013-03-13 00:55:00,29.5,19.9,30.39,North,8,0.0,0.0,67,0.00,CLR,,0.00,WeatherDisplay:10.37,2013-03-13 05:55:00,
2013-03-13 01:00:00,29.3,19.7,30.39,North,8,0.0,0.0,67,0.00,CLR,,0.00,WeatherDisplay:10.37,2013-03-13 06:00:00,
2013-03-13 01:05:00,29.1,19.5,30.39,North,8,0.0,0.0,67,0.00,CLR,,0.00,WeatherDisplay:10.37,2013-03-13 06:05:00,
2013-03-13 01:10:00,28.8,19.5,30.39,North,8,0.0,0.0,68,0.00,CLR,,0.00,WeatherDisplay:10.37,2013-03-13 06:10:00,
2013-03-13 01:15:00,28.8,19.5,30.39,North,8,0.0,0.0,68,0.00,CLR,,0.00,WeatherDisplay:10.37,2013-03-13 06:15:00,
2013-03-13 01:20:00,28.8,19.5,30.39,North,8,0.0,0.0,68,0.00,CLR,,0.00,WeatherDisplay:10.37,2013-03-13 06:20:00,
2013-03-13 01:25:00,28.4,19.5,30.39,North,8,0.0,0.0,69,0.00,CLR,,0.00,WeatherDisplay:10.37,2013-03-13 06:25:00,
2013-03-13 01:30:00,28.2,19.3,30.39,North,8,0.0,0.0,69,0.00,CLR,,0.00,WeatherDisplay:10.37,2013-03-13 06:30:00,
2013-03-13 01:35:00,28.2,19.3,30.39,North,8,0.0,0.0,69,0.00,CLR,,0.00,WeatherDisplay:10.37,2013-03-13 06:35:00,
2013-03-13 01:40:00,28.0,19.2,30.39,North,8,0.0,0.0,69,0.00,CLR,,0.00,WeatherDisplay:10.37,2013-03-13 06:40:00,
2013-03-13 01:45:00,27.9,19.0,30.39,North,8,0.0,0.0,69,0.00,CLR,,0.00,WeatherDisplay:10.37,2013-03-13 06:45:00,
2013-03-13 01:50:00,27.7,18.8,30.39,North,8,0.0,0.0,69,0.00,CLR,,0.00,WeatherDisplay:10.37,2013-03-13 06:50:00,
2013-03-13 01:55:00,27.7,19.2,30.39,North,8,0.0,0.0,70,0.00,CLR,,0.00,WeatherDisplay:10.37,2013-03-13 06:55:00,
2013-03-13 02:00:00,27.5,19.0,30.39,North,8,0.0,0.0,70,0.00,CLR,,0.00,WeatherDisplay:10.37,2013-03-13 07:00:00,
2013-03-13 02:05:00,27.3,18.8,30.39,North,8,0.0,0.0,70,0.00,CLR,,0.00,WeatherDisplay:10.37,2013-03-13 07:05:00,
2013-03-13 02:10:00,27.1,18.6,30.39,North,8,0.0,0.0,70,0.00,CLR,,0.00,WeatherDisplay:10.37,2013-03-13 07:10:00,
2013-03-13 02:15:00,27.1,18.6,30.39,North,8,0.0,0.0,70,0.00,CLR,,0.00,WeatherDisplay:10.37,2013-03-13 07:15:00,
2013-03-13 02:20:00,27.1,18.6,30.39,North,8,0.0,0.0,70,0.00,CLR,,0.00,WeatherDisplay:10.37,2013-03-13 07:20:00,
2013-03-13 02:25:00,27.0,18.8,30.39,North,8,0.0,0.0,71,0.00,CLR,,0.00,WeatherDisplay:10.37,2013-03-13 07:25:00,
2013-03-13 02:30:00,26.8,18.6,30.39,North,8,0.0,0.0,71,0.00,CLR,,0.00,WeatherDisplay:10.37,2013-03-13 07:30:00,
2013-03-13 02:35:00,26.8,18.6,30.39,North,8,0.0,0.0,71,0.00,CLR,,0.00,WeatherDisplay:10.37,2013-03-13 07:35:00,
2013-03-13 02:40:00,26.6,18.5,30.39,North,8,0.0,0.0,71,0.00,CLR,,0.00,WeatherDisplay:10.37,2013-03-13 07:40:00,
2013-03-13 02:45:00,26.6,18.5,30.39,North,8,0.0,0.0,71,0.00,CLR,,0.00,WeatherDisplay:10.37,2013-03-13 07:45:00,
2013-03-13 02:50:00,26.6,18.8,30.39,North,8,0.0,0.0,72,0.00,CLR,,0.00,WeatherDisplay:10.37,2013-03-13 07:50:00,
2013-03-13 02:55:00,26.2,18.4,30.39,North,8,0.0,0.0,72,0.00,CLR,,0.00,WeatherDisplay:10.37,2013-03-13 07:55:00,
2013-03-13 03:00:00,26.2,18.4,30.39,North,8,0.0,0.0,72,0.00,CLR,,0.00,WeatherDisplay:10.37,2013-03-13 08:00:00,
2013-03-13 03:07:00,26.1,18.3,30.42,North,8,0.0,0.0,72,0.00,CLR,,0.00,WeatherDisplay:10.37,2013-03-13 08:07:00,
2013-03-13 03:12:00,26.1,18.6,30.42,North,8,0.0,0.0,73,0.00,CLR,,0.00,WeatherDisplay:10.37,2013-03-13 08:12:00,
2013-03-13 03:17:00,26.1,18.6,30.42,North,8,0.0,0.0,73,0.00,CLR,,0.00,WeatherDisplay:10.37,2013-03-13 08:17:00,
2013-03-13 03:22:00,25.7,17.9,30.42,North,8,0.0,0.0,72,0.00,CLR,,0.00,WeatherDisplay:10.37,2013-03-13 08:22:00,
2013-03-13 03:27:00,25.3,17.6,30.42,North,8,0.0,0.0,72,0.00,CLR,,0.00,WeatherDisplay:10.37,2013-03-13 08:27:00,
2013-03-13 03:32:00,25.5,17.7,30.42,North,8,0.0,0.0,72,0.00,CLR,,0.00,WeatherDisplay:10.37,2013-03-13 08:32:00,
2013-03-13 03:37:00,25.3,17.6,30.42,North,8,0.0,0.0,72,0.00,CLR,,0.00,WeatherDisplay:10.37,2013-03-13 08:37:00,
2013-03-13 03:42:00,25.3,17.9,30.42,North,8,0.0,0.0,73,0.00,CLR,,0.00,WeatherDisplay:10.37,2013-03-13 08:42:00,
2013-03-13 03:47:00,25.2,17.7,30.42,North,8,0.0,0.0,73,0.00,CLR,,0.00,WeatherDisplay:10.37,2013-03-13 08:47:00,
2013-03-13 03:53:00,25.2,18.0,30.42,North,8,0.0,0.0,74,0.00,CLR,,0.00,WeatherDisplay:10.37,2013-03-13 08:53:00,
2013-03-13 03:58:00,25.2,18.0,30.42,North,8,0.0,0.0,74,0.00,CLR,,0.00,WeatherDisplay:10.37,2013-03-13 08:58:00,
2013-03-13 04:03:00,25.2,18.0,30.42,North,8,0.0,0.0,74,0.00,CLR,,0.00,WeatherDisplay:10.37,2013-03-13 09:03:00,
2013-03-13 04:08:00,25.0,17.9,30.39,North,8,0.0,0.0,74,0.00,CLR,,0.00,WeatherDisplay:10.37,2013-03-13 09:08:00,
2013-03-13 04:13:00,25.0,17.9,30.39,North,8,0.0,0.0,74,0.00,CLR,,0.00,WeatherDisplay:10.37,2013-03-13 09:13:00,
2013-03-13 04:18:00,24.6,17.8,30.39,North,8,0.0,0.0,75,0.00,CLR,,0.00,WeatherDisplay:10.37,2013-03-13 09:18:00,
2013-03-13 04:23:00,24.6,17.8,30.42,North,8,0.0,0.0,75,0.00,CLR,,0.00,WeatherDisplay:10.37,2013-03-13 09:23:00,
2013-03-13 04:28:00,24.4,17.6,30.42,North,8,0.0,0.0,75,0.00,CLR,,0.00,WeatherDisplay:10.37,2013-03-13 09:28:00,
2013-03-13 04:33:00,24.4,17.6,30.42,North,8,0.0,0.0,75,0.00,CLR,,0.00,WeatherDisplay:10.37,2013-03-13 09:33:00,
2013-03-13 04:38:00,24.3,17.5,30.42,North,8,0.0,0.0,75,0.00,CLR,,0.00,WeatherDisplay:10.37,2013-03-13 09:38:00,
2013-03-13 04:43:00,24.3,17.5,30.42,North,8,0.0,0.0,75,0.00,CLR,,0.00,WeatherDisplay:10.37,2013-03-13 09:43:00,
2013-03-13 04:48:00,23.9,17.1,30.42,North,8,0.0,0.0,75,0.00,CLR,,0.00,WeatherDisplay:10.37,2013-03-13 09:48:00,
2013-03-13 04:53:00,23.9,17.4,30.42,North,8,0.0,0.0,76,0.00,CLR,,0.00,WeatherDisplay:10.37,2013-03-13 09:53:00,
2013-03-13 04:58:00,23.9,17.4,30.42,North,8,0.0,0.0,76,0.00,CLR,,0.00,WeatherDisplay:10.37,2013-03-13 09:58:00,
2013-03-13 05:03:00,23.7,17.3,30.42,North,8,3.5,3.5,76,0.00,CLR,,0.00,WeatherDisplay:10.37,2013-03-13 10:03:00,
2013-03-13 05:08:00,23.5,17.1,30.42,North,8,0.0,0.0,76,0.00,CLR,,0.00,WeatherDisplay:10.37,2013-03-13 10:08:00,
2013-03-13 05:13:00,23.5,17.1,30.42,North,8,0.0,0.0,76,0.00,CLR,,0.00,WeatherDisplay:10.37,2013-03-13 10:13:00,
2013-03-13 05:18:00,23.5,17.4,30.42,North,8,0.0,0.0,77,0.00,CLR,,0.00,WeatherDisplay:10.37,2013-03-13 10:18:00,
2013-03-13 05:23:00,23.4,17.2,30.42,North,8,0.0,0.0,77,0.00,CLR,,0.00,WeatherDisplay:10.37,2013-03-13 10:23:00,
2013-03-13 05:28:00,23.4,17.2,30.42,North,8,0.0,0.0,77,0.00,CLR,,0.00,WeatherDisplay:10.37,2013-03-13 10:28:00,
2013-03-13 05:33:00,23.2,16.7,30.42,North,8,0.0,0.0,76,0.00,CLR,,0.00,WeatherDisplay:10.37,2013-03-13 10:33:00,
2013-03-13 05:38:00,23.0,16.9,30.42,North,8,0.0,0.0,77,0.00,CLR,,0.00,WeatherDisplay:10.37,2013-03-13 10:38:00,
2013-03-13 05:43:00,22.8,16.7,30.42,North,8,0.0,0.0,77,0.00,CLR,,0.00,WeatherDisplay:10.37,2013-03-13 10:43:00,
2013-03-13 05:48:00,22.8,16.7,30.42,North,8,0.0,0.0,77,0.00,CLR,,0.00,WeatherDisplay:10.37,2013-03-13 10:48:00,
2013-03-13 05:53:00,22.8,16.7,30.42,North,8,0.0,0.0,77,0.00,CLR,,0.00,WeatherDisplay:10.37,2013-03-13 10:53:00,
2013-03-13 05:58:00,22.8,17.0,30.42,North,8,0.0,0.0,78,0.00,CLR,,0.00,WeatherDisplay:10.37,2013-03-13 10:58:00,
2013-03-13 06:03:00,22.8,17.0,30.42,North,8,0.0,0.0,78,0.00,CLR,,0.00,WeatherDisplay:10.37,2013-03-13 11:03:00,
2013-03-13 06:08:00,22.6,16.8,30.42,North,8,0.0,0.0,78,0.00,CLR,,0.00,WeatherDisplay:10.37,2013-03-13 11:08:00,
2013-03-13 06:13:00,22.6,16.8,30.42,North,8,0.0,0.0,78,0.00,CLR,,0.00,WeatherDisplay:10.37,2013-03-13 11:13:00,
2013-03-13 06:18:00,22.5,16.6,30.42,North,8,0.0,0.0,78,0.00,CLR,,0.00,WeatherDisplay:10.37,2013-03-13 11:18:00,
2013-03-13 06:23:00,22.3,16.5,30.42,North,8,0.0,0.0,78,0.00,CLR,,0.00,WeatherDisplay:10.37,2013-03-13 11:23:00,
2013-03-13 06:28:00,22.1,16.3,30.42,North,8,0.0,0.0,78,0.00,CLR,,0.00,WeatherDisplay:10.37,2013-03-13 11:28:00,
2013-03-13 06:33:00,22.1,16.3,30.42,North,8,0.0,0.0,78,0.00,CLR,,0.00,WeatherDisplay:10.37,2013-03-13 11:33:00,
2013-03-13 06:38:00,22.1,16.3,30.42,North,8,0.0,0.0,78,0.00,CLR,,0.00,WeatherDisplay:10.37,2013-03-13 11:38:00,
2013-03-13 06:43:00,21.7,15.9,30.42,North,8,0.0,0.0,78,0.00,CLR,,0.00,WeatherDisplay:10.37,2013-03-13 11:43:00,
2013-03-13 06:48:00,21.7,15.9,30.42,North,8,0.0,0.0,78,0.00,CLR,,0.00,WeatherDisplay:10.37,2013-03-13 11:48:00,
2013-03-13 06:53:00,21.7,15.9,30.44,North,8,0.0,0.0,78,0.00,CLR,,0.00,WeatherDisplay:10.37,2013-03-13 11:53:00,
2013-03-13 06:58:00,21.6,15.8,30.44,North,8,0.0,0.0,78,0.00,CLR,,0.00,WeatherDisplay:10.37,2013-03-13 11:58:00,
2013-03-13 07:03:00,21.6,16.1,30.44,North,8,0.0,0.0,79,0.00,CLR,,0.00,WeatherDisplay:10.37,2013-03-13 12:03:00,
2013-03-13 07:08:00,21.6,16.1,30.44,North,8,0.0,0.0,79,0.00,CLR,,0.00,WeatherDisplay:10.37,2013-03-13 12:08:00,
2013-03-13 07:13:00,21.4,15.9,30.44,North,8,0.0,0.0,79,0.00,CLR,,0.00,WeatherDisplay:10.37,2013-03-13 12:13:00,
2013-03-13 07:18:00,21.4,15.9,30.44,North,8,0.0,0.0,79,0.00,CLR,,0.00,WeatherDisplay:10.37,2013-03-13 12:18:00,
2013-03-13 07:23:00,21.4,16.2,30.44,North,8,0.0,0.0,80,0.00,CLR,,0.00,WeatherDisplay:10.37,2013-03-13 12:23:00,
2013-03-13 07:28:00,21.4,16.2,30.44,North,8,0.0,0.0,80,0.00,CLR,,0.00,WeatherDisplay:10.37,2013-03-13 12:28:00,
2013-03-13 07:33:00,21.4,16.2,30.44,North,8,0.0,0.0,80,0.00,CLR,,0.00,WeatherDisplay:10.37,2013-03-13 12:33:00,
2013-03-13 07:38:00,21.2,16.0,30.44,North,8,0.0,0.0,80,0.00,CLR,,0.00,WeatherDisplay:10.37,2013-03-13 12:38:00,
2013-03-13 07:43:00,21.2,16.3,30.44,North,8,0.0,0.0,81,0.00,CLR,,0.00,WeatherDisplay:10.37,2013-03-13 12:43:00,
2013-03-13 07:48:00,21.2,16.3,30.44,North,8,0.0,0.0,81,0.00,CLR,,0.00,WeatherDisplay:10.37,2013-03-13 12:48:00,
2013-03-13 07:53:00,21.2,16.3,30.44,North,8,0.0,0.0,81,0.00,CLR,,0.00,WeatherDisplay:10.37,2013-03-13 12:53:00,
2013-03-13 07:58:00,21.2,16.6,30.44,North,8,0.0,0.0,82,0.00,CLR,,0.00,WeatherDisplay:10.37,2013-03-13 12:58:00,
2013-03-13 08:03:00,21.2,16.6,30.44,North,8,0.0,0.0,82,0.00,CLR,,0.00,WeatherDisplay:10.37,2013-03-13 13:03:00,
2013-03-13 08:08:00,21.2,16.6,30.44,North,8,0.0,0.0,82,0.00,CLR,,0.00,WeatherDisplay:10.37,2013-03-13 13:08:00,
2013-03-13 08:13:00,21.4,16.7,30.44,North,8,0.0,0.0,82,0.00,CLR,,0.00,WeatherDisplay:10.37,2013-03-13 13:13:00,
2013-03-13 08:18:00,21.4,16.7,30.44,North,8,0.0,0.0,82,0.00,CLR,,0.00,WeatherDisplay:10.37,2013-03-13 13:18:00,
2013-03-13 08:23:00,21.9,17.5,30.44,North,8,3.5,3.5,83,0.00,CLR,,0.00,WeatherDisplay:10.37,2013-03-13 13:23:00,
2013-03-13 08:28:00,22.3,18.2,30.44,North,8,0.0,0.0,84,0.00,CLR,,0.00,WeatherDisplay:10.37,2013-03-13 13:28:00,
2013-03-13 08:33:00,22.8,19.0,30.44,North,8,0.0,0.0,85,0.00,CLR,,0.00,WeatherDisplay:10.37,2013-03-13 13:33:00,
2013-03-13 08:38:00,23.4,19.5,30.44,North,8,3.5,3.5,85,0.00,CLR,,0.00,WeatherDisplay:10.37,2013-03-13 13:38:00,
2013-03-13 08:44:00,23.5,19.7,30.44,West,263,2.3,0.0,85,0.00,CLR,,0.00,WeatherDisplay:10.37,2013-03-13 13:44:00,
2013-03-13 08:49:00,24.1,20.2,30.48,North,6,2.3,2.3,85,0.00,CLR,,0.00,WeatherDisplay:10.37,2013-03-13 13:49:00,
2013-03-13 08:54:00,24.6,20.8,30.48,North,6,3.5,0.0,85,0.00,CLR,,0.00,WeatherDisplay:10.37,2013-03-13 13:54:00,
2013-03-13 08:59:00,24.8,20.9,30.48,North,6,3.5,0.0,85,0.00,CLR,,0.00,WeatherDisplay:10.37,2013-03-13 13:59:00,
2013-03-13 09:04:00,25.3,21.2,30.48,North,6,2.3,0.0,84,0.00,CLR,,0.00,WeatherDisplay:10.37,2013-03-13 14:04:00,
2013-03-13 09:09:00,25.7,21.5,30.48,North,6,2.3,2.3,84,0.00,CLR,,0.00,WeatherDisplay:10.37,2013-03-13 14:09:00,
2013-03-13 09:14:00,26.2,22.1,30.48,NNE,26,3.5,3.5,84,0.00,CLR,,0.00,WeatherDisplay:10.37,2013-03-13 14:14:00,
2013-03-13 09:19:00,26.8,22.3,30.48,WSW,237,3.5,0.0,83,0.00,CLR,,0.00,WeatherDisplay:10.37,2013-03-13 14:19:00,
2013-03-13 09:24:00,26.8,22.3,30.48,NNW,348,3.5,0.0,83,0.00,CLR,,0.00,WeatherDisplay:10.37,2013-03-13 14:24:00,
2013-03-13 09:29:00,27.5,22.7,30.48,NW,319,2.3,0.0,82,0.00,CLR,,0.00,WeatherDisplay:10.37,2013-03-13 14:29:00,
2013-03-13 09:34:00,27.7,22.9,30.48,NW,310,3.5,3.5,82,0.00,CLR,,0.00,WeatherDisplay:10.37,2013-03-13 14:34:00,
2013-03-13 09:39:00,28.2,23.1,30.48,West,265,3.5,0.0,81,0.00,CLR,,0.00,WeatherDisplay:10.37,2013-03-13 14:39:00,
2013-03-13 09:44:00,28.6,23.5,30.48,WNW,287,2.7,0.0,81,0.00,CLR,,0.00,WeatherDisplay:10.37,2013-03-13 14:44:00,
2013-03-13 09:49:00,29.3,23.6,30.50,NE,39,3.5,3.5,79,0.00,CLR,,0.00,WeatherDisplay:10.37,2013-03-13 14:49:00,
2013-03-13 09:54:00,29.7,23.6,30.50,NNE,27,3.5,3.6,78,0.00,CLR,,0.00,WeatherDisplay:10.37,2013-03-13 14:54:00,
2013-03-13 09:59:00,29.7,23.6,30.50,NE,34,4.9,4.9,78,0.00,CLR,,0.00,WeatherDisplay:10.37,2013-03-13 14:59:00,
2013-03-13 10:04:00,30.6,23.6,30.48,NNE,20,3.5,0.0,75,0.00,CLR,,0.00,WeatherDisplay:10.37,2013-03-13 15:04:00,
2013-03-13 10:09:00,30.9,23.6,30.48,NNW,336,3.5,3.5,74,0.00,CLR,,0.00,WeatherDisplay:10.37,2013-03-13 15:09:00,
2013-03-13 10:14:00,30.9,23.6,30.48,ENE,58,3.5,3.5,74,0.00,CLR,,0.00,WeatherDisplay:10.37,2013-03-13 15:14:00,
2013-03-13 10:19:00,30.9,23.6,30.48,NNE,31,3.5,3.5,74,0.00,CLR,,0.00,WeatherDisplay:10.37,2013-03-13 15:19:00,
2013-03-13 10:24:00,30.9,23.6,30.48,WNW,288,4.6,4.6,74,0.00,CLR,,0.00,WeatherDisplay:10.37,2013-03-13 15:24:00,
2013-03-13 10:29:00,30.9,23.6,30.48,NE,53,3.5,3.6,74,0.00,CLR,,0.00,WeatherDisplay:10.37,2013-03-13 15:29:00,
2013-03-13 10:34:00,33.8,24.7,30.50,NW,322,3.5,0.0,69,0.00,CLR,,0.00,WeatherDisplay:10.37,2013-03-13 15:34:00,
2013-03-13 10:39:00,34.2,25.0,30.50,WSW,243,6.3,6.3,69,0.00,CLR,,0.00,WeatherDisplay:10.37,2013-03-13 15:39:00,
2013-03-13 10:44:00,34.5,25.0,30.50,West,268,4.0,4.0,68,0.00,CLR,,0.00,WeatherDisplay:10.37,2013-03-13 15:44:00,
2013-03-13 10:49:00,35.1,25.2,30.50,WSW,251,3.5,3.5,67,0.00,CLR,,0.00,WeatherDisplay:10.37,2013-03-13 15:49:00,
2013-03-13 10:54:00,35.6,25.4,30.50,NNE,30,4.6,4.6,66,0.00,CLR,,0.00,WeatherDisplay:10.37,2013-03-13 15:54:00,
2013-03-13 10:59:00,36.1,25.5,30.50,NW,320,4.6,4.6,65,0.00,CLR,,0.00,WeatherDisplay:10.37,2013-03-13 15:59:00,
2013-03-13 11:04:00,36.3,25.3,30.50,NNE,26,3.5,3.5,64,0.00,CLR,,0.00,WeatherDisplay:10.37,2013-03-13 16:04:00,
2013-03-13 11:09:00,36.3,25.3,30.50,NNW,345,3.5,3.5,64,0.00,CLR,,0.00,WeatherDisplay:10.37,2013-03-13 16:09:00,
2013-03-13 11:14:00,36.3,25.3,30.50,NW,308,2.3,2.3,64,0.00,CLR,,0.00,WeatherDisplay:10.37,2013-03-13 16:14:00,
2013-03-13 11:19:00,37.9,26.1,30.50,North,357,5.8,5.8,62,0.00,CLR,,0.00,WeatherDisplay:10.37,2013-03-13 16:19:00,
2013-03-13 11:24:00,37.9,26.1,30.50,SW,230,3.6,3.6,62,0.00,CLR,,0.00,WeatherDisplay:10.37,2013-03-13 16:24:00,
2013-03-13 11:29:00,38.7,26.4,30.50,NW,326,3.5,3.5,61,0.00,CLR,,0.00,WeatherDisplay:10.37,2013-03-13 16:29:00,
2013-03-13 11:34:00,38.8,26.1,30.50,East,83,3.5,3.5,60,0.00,CLR,,0.00,WeatherDisplay:10.37,2013-03-13 16:34:00,
2013-03-13 11:39:00,38.8,26.1,30.50,NNE,24,5.8,5.8,60,0.00,CLR,,0.00,WeatherDisplay:10.37,2013-03-13 16:39:00,
2013-03-13 11:44:00,38.8,26.1,30.50,ESE,115,3.5,3.5,60,0.00,CLR,,0.00,WeatherDisplay:10.37,2013-03-13 16:44:00,
2013-03-13 11:49:00,39.9,27.1,30.50,North,1,4.6,4.6,60,0.00,CLR,,0.00,WeatherDisplay:10.37,2013-03-13 16:49:00,
2013-03-13 11:54:00,40.1,26.9,30.50,North,1,5.8,5.8,59,0.00,CLR,,0.00,WeatherDisplay:10.37,2013-03-13 16:54:00,
2013-03-13 11:59:00,39.9,26.3,30.50,North,1,0.0,0.0,58,0.00,CLR,,0.00,WeatherDisplay:10.37,2013-03-13 16:59:00,
2013-03-13 12:04:00,39.9,26.3,30.50,North,1,5.8,5.8,58,0.00,CLR,,0.00,WeatherDisplay:10.37,2013-03-13 17:04:00,
2013-03-13 12:09:00,39.9,26.3,30.50,West,261,6.3,6.3,58,0.00,CLR,,0.00,WeatherDisplay:10.37,2013-03-13 17:09:00,
2013-03-13 12:14:00,39.9,25.5,30.50,WNW,292,3.5,3.5,56,0.00,BKN,,0.00,WeatherDisplay:10.37,2013-03-13 17:14:00,
2013-03-13 12:19:00,39.9,25.5,30.50,North,5,3.5,3.5,56,0.00,BKN,,0.00,WeatherDisplay:10.37,2013-03-13 17:19:00,
2013-03-13 12:24:00,40.1,25.6,30.50,NW,313,3.5,3.5,56,0.00,BKN,,0.00,WeatherDisplay:10.37,2013-03-13 17:24:00,
2013-03-13 12:29:00,40.3,25.8,30.50,NNE,15,0.0,0.0,56,0.00,BKN,,0.00,WeatherDisplay:10.37,2013-03-13 17:29:00,
2013-03-13 12:34:00,39.4,24.5,30.50,SE,124,3.5,3.5,55,0.00,BKN,,0.00,WeatherDisplay:10.37,2013-03-13 17:34:00,
2013-03-13 12:39:00,39.4,24.5,30.50,SSE,159,2.3,2.3,55,0.00,BKN,,0.00,WeatherDisplay:10.37,2013-03-13 17:39:00,
2013-03-13 12:44:00,39.4,24.5,30.50,West,278,3.5,3.5,55,0.00,BKN,,0.00,WeatherDisplay:10.37,2013-03-13 17:44:00,
2013-03-13 12:49:00,41.0,26.1,30.48,WNW,290,3.5,0.0,55,0.00,BKN,,0.00,WeatherDisplay:10.37,2013-03-13 17:49:00,
2013-03-13 12:54:00,41.0,26.1,30.48,West,269,3.5,3.5,55,0.00,BKN,,0.00,WeatherDisplay:10.37,2013-03-13 17:54:00,
2013-03-13 12:59:00,41.0,26.1,30.48,West,272,4.0,4.0,55,0.00,BKN,,0.00,WeatherDisplay:10.37,2013-03-13 17:59:00,
2013-03-13 13:04:00,41.7,26.7,30.48,West,262,3.5,0.0,55,0.00,BKN,,0.00,WeatherDisplay:10.37,2013-03-13 18:04:00,
2013-03-13 13:09:00,41.7,26.7,30.48,SW,219,3.5,3.5,55,0.00,BKN,,0.00,WeatherDisplay:10.37,2013-03-13 18:09:00,
2013-03-13 13:14:00,41.2,25.8,30.48,WSW,250,5.8,0.0,54,0.00,OVC,,0.00,WeatherDisplay:10.37,2013-03-13 18:14:00,
2013-03-13 13:19:00,40.6,25.3,30.48,South,184,3.5,3.6,54,0.00,OVC,,0.00,WeatherDisplay:10.37,2013-03-13 18:19:00,
2013-03-13 13:24:00,40.1,24.8,30.48,WSW,252,4.6,0.0,54,0.00,OVC,,0.00,WeatherDisplay:10.37,2013-03-13 18:24:00,
2013-03-13 13:29:00,40.6,25.3,30.48,WSW,252,0.0,0.0,54,0.00,OVC,,0.00,WeatherDisplay:10.37,2013-03-13 18:29:00,
2013-03-13 13:34:00,40.6,25.3,30.48,WSW,256,3.5,3.5,54,0.00,OVC,,0.00,WeatherDisplay:10.37,2013-03-13 18:34:00,
2013-03-13 13:39:00,40.6,25.3,30.48,WSW,239,3.5,0.0,54,0.00,OVC,,0.00,WeatherDisplay:10.37,2013-03-13 18:39:00,
2013-03-13 13:44:00,41.0,25.6,30.48,SW,220,0.0,0.0,54,0.00,OVC,,0.00,WeatherDisplay:10.37,2013-03-13 18:44:00,
2013-03-13 13:49:00,40.8,25.4,30.48,WSW,247,3.6,3.6,54,0.00,OVC,,0.00,WeatherDisplay:10.37,2013-03-13 18:49:00,
2013-03-13 13:54:00,41.0,25.2,30.48,WSW,239,2.3,0.0,53,0.00,OVC,,0.00,WeatherDisplay:10.37,2013-03-13 18:54:00,
2013-03-13 13:59:00,40.8,25.4,30.48,SW,233,3.5,0.0,54,0.00,OVC,,0.00,WeatherDisplay:10.37,2013-03-13 18:59:00,
2013-03-13 14:04:00,41.5,25.7,30.44,West,273,3.5,3.5,53,0.00,OVC,,0.00,WeatherDisplay:10.37,2013-03-13 19:04:00,
2013-03-13 14:09:00,41.7,25.8,30.44,West,265,3.5,3.5,53,0.00,OVC,,0.00,WeatherDisplay:10.37,2013-03-13 19:09:00,
2013-03-13 14:14:00,41.7,25.8,30.44,West,270,3.5,3.5,53,0.00,OVC,,0.00,WeatherDisplay:10.37,2013-03-13 19:14:00,
2013-03-13 14:19:00,41.7,25.8,30.44,West,277,3.5,0.0,53,0.00,OVC,,0.00,WeatherDisplay:10.37,2013-03-13 19:19:00,
2013-03-13 14:24:00,43.0,27.0,30.44,NW,310,2.3,2.3,53,0.00,OVC,,0.00,WeatherDisplay:10.37,2013-03-13 19:24:00,
2013-03-13 14:29:00,43.7,27.2,30.44,NW,306,3.5,0.0,52,0.00,OVC,,0.00,WeatherDisplay:10.37,2013-03-13 19:29:00,
2013-03-13 14:34:00,44.1,27.5,30.44,SE,140,3.6,3.6,52,0.00,OVC,,0.00,WeatherDisplay:10.37,2013-03-13 19:34:00,
2013-03-13 14:39:00,43.0,26.1,30.44,East,87,3.5,0.0,51,0.00,OVC,,0.00,WeatherDisplay:10.37,2013-03-13 19:39:00,
2013-03-13 14:44:00,43.5,27.0,30.44,NE,37,4.0,4.0,52,0.00,OVC,,0.00,WeatherDisplay:10.37,2013-03-13 19:44:00,
2013-03-13 14:49:00,43.7,27.2,30.42,SE,129,3.5,3.5,52,0.00,OVC,,0.00,WeatherDisplay:10.37,2013-03-13 19:49:00,
2013-03-13 14:54:00,43.2,26.2,30.42,SE,146,3.5,3.5,51,0.00,OVC,,0.00,WeatherDisplay:10.37,2013-03-13 19:54:00,
2013-03-13 14:59:00,43.5,26.6,30.42,SSE,164,3.5,3.5,51,0.00,OVC,,0.00,WeatherDisplay:10.37,2013-03-13 19:59:00,
2013-03-13 15:04:00,44.2,27.2,30.42,SSE,158,3.5,3.5,51,0.00,OVC,,0.00,WeatherDisplay:10.37,2013-03-13 20:04:00,
2013-03-13 15:09:00,44.4,27.4,30.42,NE,40,3.5,3.5,51,0.00,OVC,,0.00,WeatherDisplay:10.37,2013-03-13 20:09:00,
2013-03-13 15:14:00,44.6,27.6,30.42,SSE,153,4.6,4.6,51,0.00,OVC,,0.00,WeatherDisplay:10.37,2013-03-13 20:14:00,
2013-03-13 15:19:00,44.8,27.7,30.42,SSE,159,3.5,0.0,51,0.00,OVC,,0.00,WeatherDisplay:10.37,2013-03-13 20:19:00,
2013-03-13 15:24:00,45.3,28.2,30.42,NNE,28,2.7,0.0,51,0.00,OVC,,0.00,WeatherDisplay:10.37,2013-03-13 20:24:00,
2013-03-13 15:29:00,45.0,27.4,30.42,SE,135,4.0,4.0,50,0.00,OVC,,0.00,WeatherDisplay:10.37,2013-03-13 20:29:00,
2013-03-13 15:34:00,45.0,27.4,30.39,NE,46,3.5,3.5,50,0.00,OVC,,0.00,WeatherDisplay:10.37,2013-03-13 20:34:00,
2013-03-13 15:39:00,45.3,27.8,30.39,SSE,147,5.8,5.8,50,0.00,OVC,,0.00,WeatherDisplay:10.37,2013-03-13 20:39:00,
2013-03-13 15:44:00,45.3,27.8,30.39,ESE,123,5.4,0.0,50,0.00,OVC,,0.00,WeatherDisplay:10.37,2013-03-13 20:44:00,
2013-03-13 15:49:00,45.1,27.6,30.39,SE,132,5.8,5.8,50,0.00,OVC,,0.00,WeatherDisplay:10.37,2013-03-13 20:49:00,
2013-03-13 15:55:00,45.9,28.3,30.39,SW,222,3.5,0.0,50,0.00,OVC,,0.00,WeatherDisplay:10.37,2013-03-13 20:55:00,
2013-03-13 16:00:00,45.9,28.3,30.39,East,88,3.5,3.5,50,0.00,OVC,,0.00,WeatherDisplay:10.37,2013-03-13 21:00:00,
2013-03-13 16:05:00,45.5,27.9,30.39,South,186,3.5,3.5,50,0.00,FEW,,0.00,WeatherDisplay:10.37,2013-03-13 21:05:00,
2013-03-13 16:10:00,45.7,28.1,30.39,SW,230,3.5,3.5,50,0.00,FEW,,0.00,WeatherDisplay:10.37,2013-03-13 21:10:00,
2013-03-13 16:15:00,46.6,28.9,30.39,South,188,3.6,3.6,50,0.00,FEW,,0.00,WeatherDisplay:10.37,2013-03-13 21:15:00,
2013-03-13 16:20:00,46.4,28.3,30.39,WSW,244,3.5,0.0,49,0.00,FEW,,0.00,WeatherDisplay:10.37,2013-03-13 21:20:00,
2013-03-13 16:25:00,46.6,28.4,30.39,SSE,163,3.5,3.6,49,0.00,FEW,,0.00,WeatherDisplay:10.37,2013-03-13 21:25:00,
2013-03-13 16:30:00,46.9,28.8,30.39,SSW,208,3.5,0.0,49,0.00,FEW,,0.00,WeatherDisplay:10.37,2013-03-13 21:30:00,
2013-03-13 16:35:00,47.3,29.1,30.39,ESE,109,5.8,5.8,49,0.00,FEW,,0.00,WeatherDisplay:10.37,2013-03-13 21:35:00,
2013-03-13 16:40:00,46.6,28.4,30.39,ESE,112,3.5,3.6,49,0.00,FEW,,0.00,WeatherDisplay:10.37,2013-03-13 21:40:00,
2013-03-13 16:45:00,46.8,28.6,30.39,ESE,122,0.0,0.0,49,0.00,FEW,,0.00,WeatherDisplay:10.37,2013-03-13 21:45:00,
2013-03-13 16:50:00,46.4,28.3,30.39,SSE,166,4.6,4.6,49,0.00,FEW,,0.00,WeatherDisplay:10.37,2013-03-13 21:50:00,
2013-03-13 16:55:00,46.4,28.3,30.39,SSW,200,3.5,3.5,49,0.00,FEW,,0.00,WeatherDisplay:10.37,2013-03-13 21:55:00,
2013-03-13 17:00:00,46.6,28.4,30.39,SE,136,2.3,0.0,49,0.00,FEW,,0.00,WeatherDisplay:10.37,2013-03-13 22:00:00,
2013-03-13 17:05:00,46.6,28.4,30.39,SSE,161,5.8,5.8,49,0.00,CLR,,0.00,WeatherDisplay:10.37,2013-03-13 22:05:00,
2013-03-13 17:10:00,46.6,28.4,30.39,East,100,3.6,3.6,49,0.00,CLR,,0.00,WeatherDisplay:10.37,2013-03-13 22:10:00,
2013-03-13 17:15:00,46.8,27.6,30.39,South,169,5.8,5.8,47,0.00,CLR,,0.00,WeatherDisplay:10.37,2013-03-13 22:15:00,
2013-03-13 17:20:00,46.6,27.4,30.39,WSW,249,3.5,3.5,47,0.00,CLR,,0.00,WeatherDisplay:10.37,2013-03-13 22:20:00,
2013-03-13 17:25:00,46.4,27.2,30.39,SSE,166,3.1,0.0,47,0.00,CLR,,0.00,WeatherDisplay:10.37,2013-03-13 22:25:00,
2013-03-13 17:30:00,46.4,28.3,30.39,SSW,192,3.5,3.5,49,0.00,CLR,,0.00,WeatherDisplay:10.37,2013-03-13 22:30:00,
2013-03-13 17:35:00,46.6,28.4,30.39,West,271,5.8,5.8,49,0.00,CLR,,0.00,WeatherDisplay:10.37,2013-03-13 22:35:00,
2013-03-13 17:40:00,46.6,28.4,30.39,SSW,205,2.3,0.0,49,0.00,CLR,,0.00,WeatherDisplay:10.37,2013-03-13 22:40:00,
2013-03-13 17:45:00,46.6,28.4,30.39,WSW,250,3.5,0.0,49,0.00,CLR,,0.00,WeatherDisplay:10.37,2013-03-13 22:45:00,
2013-03-13 17:50:00,46.6,28.4,30.39,WSW,249,3.5,4.0,49,0.00,CLR,,0.00,WeatherDisplay:10.37,2013-03-13 22:50:00,
2013-03-13 17:55:00,46.6,28.4,30.39,WSW,239,3.5,3.5,49,0.00,CLR,,0.00,WeatherDisplay:10.37,2013-03-13 22:55:00,
2013-03-13 18:00:00,46.4,28.3,30.39,SE,133,5.8,5.8,49,0.00,CLR,,0.00,WeatherDisplay:10.37,2013-03-13 23:00:00,
2013-03-13 18:05:00,46.2,28.1,30.36,SE,137,8.1,8.1,49,0.00,CLR,,0.00,WeatherDisplay:10.37,2013-03-13 23:05:00,
2013-03-13 18:10:00,46.2,28.6,30.36,SSW,195,3.5,3.5,50,0.00,CLR,,0.00,WeatherDisplay:10.37,2013-03-13 23:10:00,
2013-03-13 18:15:00,46.2,28.1,30.36,East,93,3.5,3.5,49,0.00,CLR,,0.00,WeatherDisplay:10.37,2013-03-13 23:15:00,
2013-03-13 18:20:00,46.2,28.1,30.36,SW,215,3.5,3.5,49,0.00,CLR,,0.00,WeatherDisplay:10.37,2013-03-13 23:20:00,
2013-03-13 18:25:00,46.2,28.1,30.36,SE,135,3.6,3.6,49,0.00,CLR,,0.00,WeatherDisplay:10.37,2013-03-13 23:25:00,
2013-03-13 18:30:00,46.0,27.9,30.36,SW,230,4.6,4.6,49,0.00,CLR,,0.00,WeatherDisplay:10.37,2013-03-13 23:30:00,
2013-03-13 18:35:00,46.0,27.9,30.36,WSW,243,2.2,2.2,49,0.00,CLR,,0.00,WeatherDisplay:10.37,2013-03-13 23:35:00,
2013-03-13 18:40:00,45.9,27.8,30.36,WSW,238,2.3,0.0,49,0.00,CLR,,0.00,WeatherDisplay:10.37,2013-03-13 23:40:00,
2013-03-13 18:45:00,45.7,27.6,30.36,SW,235,3.5,0.0,49,0.00,CLR,,0.00,WeatherDisplay:10.37,2013-03-13 23:45:00,
2013-03-13 18:50:00,45.7,27.6,30.36,SSE,152,3.5,3.5,49,0.00,CLR,,0.00,WeatherDisplay:10.37,2013-03-13 23:50:00,
2013-03-13 18:55:00,45.5,27.4,30.36,SE,129,2.3,0.0,49,0.00,CLR,,0.00,WeatherDisplay:10.37,2013-03-13 23:55:00,
2013-03-13 19:00:00,45.3,27.3,30.36,SW,222,5.8,0.0,49,0.00,CLR,,0.00,WeatherDisplay:10.37,2013-03-14 00:00:00,
2013-03-13 19:05:00,45.1,27.1,30.36,SE,124,3.5,0.0,49,0.00,CLR,,0.00,WeatherDisplay:10.37,2013-03-14 00:05:00,
2013-03-13 19:10:00,45.0,26.9,30.36,South,189,2.3,2.3,49,0.00,CLR,,0.00,WeatherDisplay:10.37,2013-03-14 00:10:00,
2013-03-13 19:15:00,44.8,26.8,30.36,SE,138,3.5,3.5,49,0.00,CLR,,0.00,WeatherDisplay:10.37,2013-03-14 00:15:00,
2013-03-13 19:20:00,44.4,26.9,30.36,SE,132,2.3,0.0,50,0.00,CLR,,0.00,WeatherDisplay:10.37,2013-03-14 00:20:00,
2013-03-13 19:25:00,44.2,26.8,30.36,SSE,151,0.0,0.0,50,0.00,CLR,,0.00,WeatherDisplay:10.37,2013-03-14 00:25:00,
2013-03-13 19:30:00,44.1,26.6,30.36,SSE,151,0.0,0.0,50,0.00,CLR,,0.00,WeatherDisplay:10.37,2013-03-14 00:30:00,
2013-03-13 19:35:00,43.7,26.3,30.36,SE,132,2.3,0.0,50,0.00,CLR,,0.00,WeatherDisplay:10.37,2013-03-14 00:35:00,
2013-03-13 19:40:00,43.5,26.1,30.36,SE,132,2.3,0.0,50,0.00,CLR,,0.00,WeatherDisplay:10.37,2013-03-14 00:40:00,
2013-03-13 21:02:00,43.4,26.0,30.33,SE,144,2.7,2.7,50,0.00,CLR,,0.00,WeatherDisplay:10.37,2013-03-14 02:02:00,
2013-03-13 21:07:00,43.4,26.0,30.33,SSE,150,2.3,0.0,50,0.00,CLR,,0.00,WeatherDisplay:10.37,2013-03-14 02:07:00,
2013-03-13 21:12:00,39.7,24.4,30.33,South,169,2.3,0.0,54,0.00,CLR,,0.00,WeatherDisplay:10.37,2013-03-14 02:12:00,
2013-03-13 21:17:00,39.6,24.3,30.33,SE,146,3.5,0.0,54,0.00,CLR,,0.00,WeatherDisplay:10.37,2013-03-14 02:17:00,
2013-03-13 21:22:00,39.6,24.3,30.33,SE,139,2.3,0.0,54,0.00,CLR,,0.00,WeatherDisplay:10.37,2013-03-14 02:22:00,
2013-03-13 21:27:00,39.2,23.9,30.33,SE,127,2.3,0.0,54,0.00,CLR,,0.00,WeatherDisplay:10.37,2013-03-14 02:27:00,
2013-03-13 21:33:00,38.8,24.0,30.33,SSE,148,3.5,3.5,55,0.00,CLR,,0.00,WeatherDisplay:10.37,2013-03-14 02:33:00,
2013-03-13 21:38:00,38.7,23.9,30.33,SSE,147,0.0,0.0,55,0.00,CLR,,0.00,WeatherDisplay:10.37,2013-03-14 02:38:00,
2013-03-13 21:43:00,38.7,23.9,30.33,SSE,147,0.0,0.0,55,0.00,CLR,,0.00,WeatherDisplay:10.37,2013-03-14 02:43:00,
2013-03-13 21:48:00,38.5,23.7,30.33,SSE,149,0.0,0.0,55,0.00,CLR,,0.00,WeatherDisplay:10.37,2013-03-14 02:48:00,
2013-03-13 21:53:00,38.5,23.7,30.33,SSE,147,0.0,0.0,55,0.00,CLR,,0.00,WeatherDisplay:10.37,2013-03-14 02:53:00,
2013-03-13 21:58:00,38.1,23.4,30.33,SE,143,3.5,3.5,55,0.00,CLR,,0.00,WeatherDisplay:10.37,2013-03-14 02:58:00,
2013-03-13 22:03:00,38.1,23.4,30.33,SSE,149,2.3,0.0,55,0.00,CLR,,0.00,WeatherDisplay:10.37,2013-03-14 03:03:00,
2013-03-13 22:08:00,37.9,23.2,30.33,SSE,149,0.0,0.0,55,0.00,CLR,,0.00,WeatherDisplay:10.37,2013-03-14 03:08:00,
2013-03-13 22:13:00,37.9,23.2,30.33,SSE,149,0.0,0.0,55,0.00,CLR,,0.00,WeatherDisplay:10.37,2013-03-14 03:13:00,
2013-03-13 22:18:00,37.6,23.3,30.33,SSE,152,3.5,3.5,56,0.00,CLR,,0.00,WeatherDisplay:10.37,2013-03-14 03:18:00,
2013-03-13 22:23:00,37.6,23.3,30.33,SSE,155,3.5,3.5,56,0.00,CLR,,0.00,WeatherDisplay:10.37,2013-03-14 03:23:00,
2013-03-13 22:28:00,37.6,23.3,30.33,SSE,155,0.0,0.0,56,0.00,CLR,,0.00,WeatherDisplay:10.37,2013-03-14 03:28:00,
2013-03-13 22:33:00,37.4,23.1,30.33,SSE,155,0.0,0.0,56,0.00,CLR,,0.00,WeatherDisplay:10.37,2013-03-14 03:33:00,
2013-03-13 22:38:00,37.4,23.1,30.33,SSE,155,3.5,0.0,56,0.00,CLR,,0.00,WeatherDisplay:10.37,2013-03-14 03:38:00,
2013-03-13 22:43:00,37.4,23.1,30.33,SSE,159,3.5,0.0,56,0.00,CLR,,0.00,WeatherDisplay:10.37,2013-03-14 03:43:00,
2013-03-13 22:48:00,37.2,23.4,30.33,SE,138,3.5,3.5,57,0.00,CLR,,0.00,WeatherDisplay:10.37,2013-03-14 03:48:00,
2013-03-13 22:53:00,37.2,23.4,30.33,SSE,150,3.5,3.5,57,0.00,CLR,,0.00,WeatherDisplay:10.37,2013-03-14 03:53:00,
2013-03-13 22:58:00,37.2,23.4,30.33,SE,141,2.3,0.0,57,0.00,CLR,,0.00,WeatherDisplay:10.37,2013-03-14 03:58:00,
2013-03-13 23:00:00,37.2,23.4,30.33,SE,141,0.0,0.0,57,0.00,CLR,,0.00,WeatherDisplay:10.37,2013-03-14 04:00:00,
2013-03-13 23:05:00,36.9,23.4,30.33,SE,141,0.0,4.0,58,0.00,CLR,,0.00,WeatherDisplay:10.37,2013-03-14 04:05:00,
2013-03-13 23:10:00,36.7,23.3,30.33,SE,140,0.0,3.0,58,0.00,CLR,,0.00,WeatherDisplay:10.37,2013-03-14 04:10:00,
2013-03-13 23:15:00,36.5,23.1,30.33,SE,134,0.0,0.0,58,0.00,CLR,,0.00,WeatherDisplay:10.37,2013-03-14 04:15:00,
2013-03-13 23:20:00,36.3,22.9,30.33,SE,134,0.0,0.0,58,0.00,CLR,,0.00,WeatherDisplay:10.37,2013-03-14 04:20:00,
2013-03-13 23:25:00,36.0,23.1,30.33,SE,134,0.0,0.0,59,0.00,CLR,,0.00,WeatherDisplay:10.37,2013-03-14 04:25:00,
2013-03-13 23:30:00,36.0,23.0,30.33,SE,134,0.0,0.0,59,0.00,CLR,,0.00,WeatherDisplay:10.37,2013-03-14 04:30:00,
2013-03-13 23:35:00,35.8,22.8,30.30,SE,134,0.0,0.0,59,0.00,CLR,,0.00,WeatherDisplay:10.37,2013-03-14 04:35:00,
2013-03-13 23:40:00,35.6,22.7,30.30,SE,134,0.0,0.0,59,0.00,CLR,,0.00,WeatherDisplay:10.37,2013-03-14 04:40:00,
2013-03-13 23:45:00,35.6,23.1,30.30,ESE,123,3.5,0.0,60,0.00,CLR,,0.00,WeatherDisplay:10.37,2013-03-14 04:45:00,
2013-03-13 23:50:00,35.6,23.1,30.30,SE,134,1.0,3.0,60,0.00,CLR,,0.00,WeatherDisplay:10.37,2013-03-14 04:50:00,
2013-03-13 23:55:00,35.6,23.5,30.30,SSE,165,3.5,0.0,61,0.00,CLR,,0.00,WeatherDisplay:10.37,2013-03-14 04:55:00,